Time;durP1;ratioP1;P1;durP2;ratioP2;P2;SDS_P1;SDS_P2;PMS_P1;PMS_P2;Temp;Humidity;BMP_temperature;BMP_pressure;BME280_temperature;BME280_humidity;BME280_pressure;Samples;Min_cycle;Max_cycle;Signal;HPM_P1;HPM_P2
2022/02/15 00:02:14;;;;;;;;;;;25.10;99.90;;;;;;5072339;28;19908;-72
2022/02/15 00:04:40;;;;;;;;;;;25.10;99.90;;;;;;5072164;28;19915;-72
2022/02/15 00:07:07;;;;;;;;;;;25.20;99.90;;;;;;5072020;28;19915;-72
2022/02/15 00:09:34;;;;;;;;;;;25.40;99.90;;;;;;5072126;28;19908;-72
2022/02/15 00:12:01;;;;;;;;;;;25.50;99.90;;;;;;5071760;28;19909;-72
2022/02/15 00:14:27;;;;;;;;;;;25.60;99.90;;;;;;5071797;28;19913;-72
2022/02/15 00:16:55;;;;;;;;;;;25.50;99.90;;;;;;5072024;28;19908;-72
2022/02/15 00:19:22;;;;;;;;;;;25.50;99.90;;;;;;5104063;28;19924;-72
2022/02/15 00:21:48;;;;;;;;;;;25.40;99.90;;;;;;5104533;28;19909;-72
2022/02/15 00:24:15;;;;;;;;;;;25.50;99.90;;;;;;5071889;28;20383;-72
2022/02/15 00:26:42;;;;;;;;;;;25.50;99.90;;;;;;5071817;28;19917;-72
2022/02/15 00:29:08;;;;;;;;;;;25.60;99.90;;;;;;5072000;28;19915;-72
2022/02/15 00:31:35;;;;;;;;;;;25.60;99.90;;;;;;5074387;28;20248;-72
2022/02/15 00:34:02;;;;;;;;;;;25.70;99.90;;;;;;5075071;28;19965;-72
2022/02/15 00:36:29;;;;;;;;;;;25.60;99.90;;;;;;5075341;28;20321;-72
2022/02/15 00:38:56;;;;;;;;;;;25.70;99.90;;;;;;5075539;28;19916;-72
2022/02/15 00:41:23;;;;;;;;;;;25.60;99.90;;;;;;5075139;28;19908;-72
2022/02/15 00:43:49;;;;;;;;;;;25.80;99.90;;;;;;5075384;28;19909;-72
2022/02/15 00:46:16;;;;;;;;;;;25.80;99.90;;;;;;5075401;28;19995;-72
2022/02/15 00:48:43;;;;;;;;;;;25.90;99.90;;;;;;5075538;28;19908;-71
2022/02/15 00:51:09;;;;;;;;;;;25.90;99.90;;;;;;5075374;28;19916;-72
2022/02/15 00:53:36;;;;;;;;;;;26.00;99.90;;;;;;5075196;28;19916;-71
2022/02/15 00:56:04;;;;;;;;;;;26.30;99.90;;;;;;5074729;28;19909;-71
2022/02/15 00:58:31;;;;;;;;;;;26.10;99.90;;;;;;5075170;28;19908;-72
2022/02/15 01:00:57;;;;;;;;;;;26.20;99.90;;;;;;5074872;28;19927;-72
2022/02/15 01:03:24;;;;;;;;;;;26.20;99.90;;;;;;5075029;28;19999;-71
2022/02/15 01:05:50;;;;;;;;;;;26.40;99.90;;;;;;5074688;28;20304;-72
2022/02/15 01:08:35;;;;;;;;;;;26.70;99.90;;;;;;5074888;28;19909;-71
2022/02/15 01:11:02;;;;;;;;;;;27.10;99.90;;;;;;5074548;28;19912;-72
2022/02/15 01:13:29;;;;;;;;;;;27.30;99.90;;;;;;5074896;28;19962;-72
2022/02/15 01:15:56;;;;;;;;;;;27.50;99.90;;;;;;5074732;28;19977;-72
2022/02/15 01:18:26;;;;;;;;;;;27.70;99.90;;;;;;5074648;28;20011;-72
2022/02/15 01:20:54;;;;;;;;;;;28.10;99.90;;;;;;5074481;28;20259;-72
2022/02/15 01:23:21;;;;;;;;;;;27.80;99.90;;;;;;5074623;28;19915;-72
2022/02/15 01:25:48;;;;;;;;;;;28.40;99.90;;;;;;5074107;28;19908;-72
2022/02/15 01:28:16;;;;;;;;;;;28.40;99.90;;;;;;5074413;28;19924;-72
2022/02/15 01:30:42;;;;;;;;;;;28.70;99.90;;;;;;5074106;28;20299;-72
2022/02/15 01:33:10;;;;;;;;;;;28.90;99.90;;;;;;5074280;28;20325;-72
2022/02/15 01:35:37;;;;;;;;;;;28.70;99.90;;;;;;5074238;28;19931;-72
2022/02/15 01:38:04;;;;;;;;;;;28.60;99.90;;;;;;5074326;28;20003;-72
2022/02/15 01:40:31;;;;;;;;;;;28.30;99.90;;;;;;5074451;28;19916;-72
2022/02/15 01:42:58;;;;;;;;;;;28.50;99.90;;;;;;5073183;28;19915;-72
2022/02/15 01:45:25;;;;;;;;;;;28.70;99.90;;;;;;5074240;28;19927;-72
2022/02/15 01:47:52;;;;;;;;;;;28.70;99.90;;;;;;5074036;28;19912;-71
2022/02/15 01:50:18;;;;;;;;;;;28.80;99.90;;;;;;5074085;28;19908;-72
2022/02/15 01:52:45;;;;;;;;;;;28.70;99.90;;;;;;5073848;28;19918;-71
2022/02/15 01:55:14;;;;;;;;;;;28.50;99.90;;;;;;5073795;28;19923;-72
2022/02/15 01:57:42;;;;;;;;;;;28.40;99.90;;;;;;5073962;28;20347;-73
2022/02/15 02:00:10;;;;;;;;;;;28.70;99.90;;;;;;5073463;28;19963;-72
2022/02/15 02:02:37;;;;;;;;;;;28.00;99.90;;;;;;5073966;28;19912;-72
2022/02/15 02:07:49;;;;;;;;;;;27.50;99.90;;;;;;5073852;28;19966;-72
2022/02/15 02:10:15;;;;;;;;;;;27.30;99.90;;;;;;5073701;28;19908;-72
2022/02/15 02:12:42;;;;;;;;;;;27.10;99.90;;;;;;5073541;28;20415;-73
2022/02/15 02:15:10;;;;;;;;;;;27.30;99.90;;;;;;5073748;28;20414;-73
2022/02/15 02:17:37;;;;;;;;;;;27.00;99.90;;;;;;5073793;28;19912;-72
2022/02/15 02:20:04;;;;;;;;;;;27.10;99.90;;;;;;5073449;28;20359;-72
2022/02/15 02:22:31;;;;;;;;;;;27.20;99.90;;;;;;5073482;28;19908;-71
2022/02/15 02:24:58;;;;;;;;;;;27.20;99.90;;;;;;5073450;28;19908;-72
2022/02/15 02:27:26;;;;;;;;;;;27.00;99.90;;;;;;5073455;28;19912;-71
2022/02/15 02:29:56;;;;;;;;;;;26.90;99.90;;;;;;5073044;28;19936;-71
2022/02/15 02:32:24;;;;;;;;;;;26.90;99.90;;;;;;5073269;28;19966;-71
2022/02/15 02:34:51;;;;;;;;;;;26.80;99.90;;;;;;5073526;28;19916;-71
2022/02/15 02:37:18;;;;;;;;;;;26.90;99.90;;;;;;5073419;28;20282;-71
2022/02/15 02:39:46;;;;;;;;;;;27.10;99.90;;;;;;5073398;28;19912;-71
2022/02/15 02:42:14;;;;;;;;;;;27.10;99.90;;;;;;5073337;28;19954;-71
2022/02/15 02:44:40;;;;;;;;;;;27.00;99.90;;;;;;5072889;28;20351;-71
2022/02/15 02:47:07;;;;;;;;;;;26.90;99.90;;;;;;5073070;28;19912;-71
2022/02/15 02:49:34;;;;;;;;;;;26.70;99.90;;;;;;5072947;28;19912;-71
2022/02/15 02:52:01;;;;;;;;;;;26.80;99.90;;;;;;5072758;28;20389;-72
2022/02/15 02:54:28;;;;;;;;;;;26.70;99.90;;;;;;5072784;28;20524;-72
2022/02/15 02:56:55;;;;;;;;;;;26.70;99.90;;;;;;5073221;28;20015;-72
2022/02/15 02:59:22;;;;;;;;;;;26.80;99.90;;;;;;5072835;28;19969;-73
2022/02/15 03:01:49;;;;;;;;;;;26.90;99.90;;;;;;5072887;28;19916;-72
2022/02/15 03:04:16;;;;;;;;;;;26.80;99.90;;;;;;5073135;28;19908;-72
2022/02/15 03:06:42;;;;;;;;;;;26.90;99.90;;;;;;5073056;28;19919;-72
2022/02/15 03:09:09;;;;;;;;;;;26.90;99.90;;;;;;5072598;28;19908;-72
2022/02/15 03:11:36;;;;;;;;;;;27.00;99.90;;;;;;5072784;28;20347;-72
2022/02/15 03:14:03;;;;;;;;;;;27.00;99.90;;;;;;5072669;28;19942;-72
2022/02/15 03:16:29;;;;;;;;;;;26.80;99.90;;;;;;5072684;28;20267;-72
2022/02/15 03:18:56;;;;;;;;;;;26.80;99.90;;;;;;5072564;28;20385;-72
2022/02/15 03:21:23;;;;;;;;;;;26.80;99.90;;;;;;5072548;28;19909;-70
2022/02/15 03:23:49;;;;;;;;;;;26.80;99.90;;;;;;5072361;28;19908;-72
2022/02/15 03:26:16;;;;;;;;;;;27.00;99.90;;;;;;5072646;28;19916;-72
2022/02/15 03:28:43;;;;;;;;;;;26.90;99.90;;;;;;5072653;28;20030;-72
2022/02/15 03:31:09;;;;;;;;;;;26.70;99.90;;;;;;5072749;28;20440;-73
2022/02/15 03:33:36;;;;;;;;;;;26.80;99.90;;;;;;5072595;28;19939;-72
2022/02/15 03:36:03;;;;;;;;;;;26.80;99.90;;;;;;5072127;28;19958;-72
2022/02/15 03:38:30;;;;;;;;;;;26.80;99.90;;;;;;5072410;28;19914;-72
2022/02/15 03:43:41;;;;;;;;;;;26.80;99.90;;;;;;5072932;28;19931;-73
2022/02/15 03:46:08;;;;;;;;;;;26.70;99.90;;;;;;5072181;28;20401;-72
2022/02/15 03:48:34;;;;;;;;;;;26.50;99.90;;;;;;5072665;28;19951;-72
2022/02/15 03:51:01;;;;;;;;;;;26.50;99.90;;;;;;5072282;28;19913;-72
2022/02/15 03:53:28;;;;;;;;;;;26.50;99.90;;;;;;5072164;28;19916;-72
2022/02/15 03:55:54;;;;;;;;;;;26.50;99.90;;;;;;5072105;28;19950;-72
2022/02/15 03:58:21;;;;;;;;;;;26.50;99.90;;;;;;5072340;28;19916;-71
2022/02/15 04:00:48;;;;;;;;;;;26.60;99.90;;;;;;5072214;28;20288;-71
2022/02/15 04:03:14;;;;;;;;;;;26.50;99.90;;;;;;5072182;28;19909;-72
2022/02/15 04:05:41;;;;;;;;;;;26.50;99.90;;;;;;5073498;28;20382;-72
2022/02/15 04:08:08;;;;;;;;;;;26.50;99.90;;;;;;5075878;28;19909;-72
2022/02/15 04:10:34;;;;;;;;;;;26.40;99.90;;;;;;5075863;28;19915;-72
2022/02/15 04:13:01;;;;;;;;;;;26.40;99.90;;;;;;5076005;28;19912;-71
2022/02/15 04:15:30;;;;;;;;;;;26.40;99.90;;;;;;5076148;28;19909;-72
2022/02/15 04:17:57;;;;;;;;;;;26.30;99.90;;;;;;5075811;28;20313;-72
2022/02/15 04:20:24;;;;;;;;;;;26.30;99.90;;;;;;5075735;28;19908;-72
2022/02/15 04:22:50;;;;;;;;;;;26.20;99.90;;;;;;5075721;28;19913;-72
2022/02/15 04:25:17;;;;;;;;;;;26.20;99.90;;;;;;5075733;28;19999;-72
2022/02/15 04:27:44;;;;;;;;;;;26.20;99.90;;;;;;5075842;28;19912;-72
2022/02/15 04:30:11;;;;;;;;;;;26.20;99.90;;;;;;5075547;28;19915;-72
2022/02/15 04:32:37;;;;;;;;;;;26.20;99.90;;;;;;5075580;28;19917;-72
2022/02/15 04:35:04;;;;;;;;;;;26.10;99.90;;;;;;5075888;28;19955;-72
2022/02/15 04:37:31;;;;;;;;;;;26.10;99.90;;;;;;5075679;28;19947;-72
2022/02/15 04:39:58;;;;;;;;;;;26.20;99.90;;;;;;5075624;28;19909;-72
2022/02/15 04:42:24;;;;;;;;;;;26.20;99.90;;;;;;5075393;28;19909;-72
2022/02/15 04:44:52;;;;;;;;;;;26.10;99.90;;;;;;5075221;28;19908;-71
2022/02/15 04:47:18;;;;;;;;;;;26.10;99.90;;;;;;5075480;28;19908;-72
2022/02/15 04:49:45;;;;;;;;;;;26.10;99.90;;;;;;5075240;28;19909;-72
2022/02/15 04:52:12;;;;;;;;;;;26.00;99.90;;;;;;5075211;28;19913;-72
2022/02/15 04:54:38;;;;;;;;;;;25.80;99.90;;;;;;5075326;28;19912;-71
2022/02/15 04:57:05;;;;;;;;;;;25.90;99.90;;;;;;5075473;28;20282;-71
2022/02/15 04:59:32;;;;;;;;;;;25.90;99.90;;;;;;5075035;28;19940;-71
2022/02/15 05:01:58;;;;;;;;;;;25.90;99.90;;;;;;5074865;28;19924;-71
2022/02/15 05:07:10;;;;;;;;;;;25.90;99.90;;;;;;5075609;28;19978;-72
2022/02/15 05:09:36;;;;;;;;;;;26.00;99.90;;;;;;5074971;28;19909;-71
2022/02/15 05:12:03;;;;;;;;;;;26.10;99.90;;;;;;5074820;28;19931;-71
2022/02/15 05:14:30;;;;;;;;;;;26.10;99.90;;;;;;5075312;28;19924;-72
2022/02/15 05:16:56;;;;;;;;;;;26.10;99.90;;;;;;5073480;28;19915;-72
2022/02/15 05:19:23;;;;;;;;;;;26.00;99.90;;;;;;5074933;28;19909;-71
2022/02/15 05:21:49;;;;;;;;;;;25.70;99.90;;;;;;5074725;28;19909;-72
2022/02/15 05:24:16;;;;;;;;;;;25.80;99.90;;;;;;5074206;28;19908;-72
2022/02/15 05:26:43;;;;;;;;;;;25.70;99.90;;;;;;5075609;28;19908;-71
2022/02/15 05:29:09;;;;;;;;;;;25.60;99.90;;;;;;5074688;28;19909;-72
2022/02/15 05:31:36;;;;;;;;;;;25.50;99.90;;;;;;5074122;28;20067;-71
2022/02/15 05:34:03;;;;;;;;;;;25.60;99.90;;;;;;5074233;28;19967;-71
2022/02/15 05:36:31;;;;;;;;;;;25.70;99.90;;;;;;5074581;28;19949;-71
2022/02/15 05:38:57;;;;;;;;;;;25.60;99.90;;;;;;5074017;28;19909;-71
2022/02/15 05:41:24;;;;;;;;;;;25.60;99.90;;;;;;5107001;28;20243;-72
2022/02/15 05:43:51;;;;;;;;;;;25.60;99.90;;;;;;5074281;28;20343;-71
2022/02/15 05:46:18;;;;;;;;;;;25.60;99.90;;;;;;5074688;28;20390;-72
2022/02/15 05:48:44;;;;;;;;;;;25.70;99.90;;;;;;5074492;28;19908;-72
2022/02/15 05:51:11;;;;;;;;;;;25.60;99.90;;;;;;5072767;28;19995;-71
2022/02/15 05:53:38;;;;;;;;;;;25.50;99.90;;;;;;5072030;28;19927;-72
2022/02/15 05:56:06;;;;;;;;;;;25.30;99.90;;;;;;5071816;28;19916;-71
2022/02/15 05:58:32;;;;;;;;;;;25.40;99.90;;;;;;5072354;28;19919;-72
2022/02/15 06:01:00;;;;;;;;;;;25.40;99.90;;;;;;5071843;28;19948;-72
2022/02/15 06:06:12;;;;;;;;;;;25.30;99.90;;;;;;5071950;28;20885;-71
2022/02/15 06:08:38;;;;;;;;;;;25.00;99.90;;;;;;5071921;28;20321;-71
2022/02/15 06:11:05;;;;;;;;;;;24.80;99.90;;;;;;5071915;28;19971;-71
2022/02/15 06:13:32;;;;;;;;;;;24.80;99.90;;;;;;5071858;28;20299;-72
2022/02/15 06:15:58;;;;;;;;;;;25.00;99.90;;;;;;5071587;28;19908;-72
2022/02/15 06:18:26;;;;;;;;;;;25.10;99.90;;;;;;5071438;28;19915;-72
2022/02/15 06:20:52;;;;;;;;;;;25.30;99.90;;;;;;5071808;28;20329;-71
2022/02/15 06:23:19;;;;;;;;;;;25.30;99.90;;;;;;5071726;28;19916;-72
2022/02/15 06:25:46;;;;;;;;;;;25.20;99.90;;;;;;5071718;28;20004;-71
2022/02/15 06:28:12;;;;;;;;;;;25.30;99.90;;;;;;5071332;28;19917;-71
2022/02/15 06:30:39;;;;;;;;;;;25.30;99.90;;;;;;5071530;28;19909;-71
2022/02/15 06:33:06;;;;;;;;;;;25.30;99.90;;;;;;5071930;28;19916;-72
2022/02/15 06:35:32;;;;;;;;;;;25.10;99.90;;;;;;5072547;28;20390;-72
2022/02/15 06:37:59;;;;;;;;;;;25.20;99.90;;;;;;5074329;28;20386;-72
2022/02/15 06:40:25;;;;;;;;;;;25.10;99.90;;;;;;5071468;28;19915;-72
2022/02/15 06:42:52;;;;;;;;;;;25.10;99.90;;;;;;5071378;28;19916;-72
2022/02/15 06:45:19;;;;;;;;;;;25.10;99.90;;;;;;5071318;28;20305;-72
2022/02/15 06:47:45;;;;;;;;;;;25.10;99.90;;;;;;5071036;28;20097;-72
2022/02/15 06:50:12;;;;;;;;;;;25.00;99.90;;;;;;5070944;28;19912;-72
2022/02/15 06:52:39;;;;;;;;;;;24.90;99.90;;;;;;5070666;28;20466;-72
2022/02/15 06:55:06;;;;;;;;;;;24.80;99.90;;;;;;5070963;28;19913;-72
2022/02/15 06:57:33;;;;;;;;;;;24.70;99.90;;;;;;5070574;28;20454;-72
2022/02/15 06:59:59;;;;;;;;;;;24.70;99.90;;;;;;5070891;28;20279;-72
2022/02/15 07:02:26;;;;;;;;;;;24.70;99.90;;;;;;5070863;28;19912;-72
2022/02/15 07:04:53;;;;;;;;;;;24.60;99.90;;;;;;5070626;28;19945;-72
2022/02/15 07:07:19;;;;;;;;;;;24.60;99.90;;;;;;5070768;28;19919;-72
2022/02/15 07:09:46;;;;;;;;;;;24.70;99.90;;;;;;5070188;28;19961;-72
2022/02/15 07:12:13;;;;;;;;;;;24.70;99.90;;;;;;5071065;28;20014;-72
2022/02/15 07:14:39;;;;;;;;;;;24.70;99.90;;;;;;5070867;28;19913;-72
2022/02/15 07:17:07;;;;;;;;;;;24.60;99.90;;;;;;5070647;28;19908;-72
2022/02/15 07:19:34;;;;;;;;;;;24.50;99.90;;;;;;5070548;28;19962;-72
2022/02/15 07:22:00;;;;;;;;;;;24.50;99.90;;;;;;5070638;28;19915;-72
2022/02/15 07:24:27;;;;;;;;;;;24.50;99.90;;;;;;5070067;28;20011;-72
2022/02/15 07:26:54;;;;;;;;;;;24.40;99.90;;;;;;5070325;28;20003;-72
2022/02/15 07:29:21;;;;;;;;;;;24.30;99.90;;;;;;5070518;28;20321;-72
2022/02/15 07:31:48;;;;;;;;;;;24.30;99.90;;;;;;5070121;28;19961;-73
2022/02/15 07:34:15;;;;;;;;;;;24.30;99.90;;;;;;5070347;28;19923;-72
2022/02/15 07:36:43;;;;;;;;;;;24.30;99.90;;;;;;5070154;28;19912;-72
2022/02/15 07:39:11;;;;;;;;;;;24.30;99.90;;;;;;5070186;28;19908;-72
2022/02/15 07:41:38;;;;;;;;;;;24.30;99.90;;;;;;5069956;28;19932;-72
2022/02/15 07:44:05;;;;;;;;;;;24.20;99.90;;;;;;5070061;28;20529;-72
2022/02/15 07:46:31;;;;;;;;;;;24.30;99.90;;;;;;5070242;28;19982;-72
2022/02/15 07:48:58;;;;;;;;;;;24.20;99.90;;;;;;5070024;28;19908;-72
2022/02/15 07:51:25;;;;;;;;;;;24.20;99.90;;;;;;5070194;28;19932;-72
2022/02/15 07:53:51;;;;;;;;;;;24.10;99.90;;;;;;5069794;28;20071;-72
2022/02/15 07:56:18;;;;;;;;;;;24.10;99.90;;;;;;5070253;28;20275;-72
2022/02/15 07:58:45;;;;;;;;;;;24.10;99.90;;;;;;5069847;28;19920;-72
2022/02/15 08:01:11;;;;;;;;;;;24.00;99.90;;;;;;5070382;28;19930;-72
2022/02/15 08:03:38;;;;;;;;;;;24.00;99.90;;;;;;5069854;28;19920;-72
2022/02/15 08:06:05;;;;;;;;;;;24.00;99.90;;;;;;5070922;28;19916;-72
2022/02/15 08:08:32;;;;;;;;;;;23.90;99.90;;;;;;5072030;28;19920;-72
2022/02/15 08:10:58;;;;;;;;;;;23.90;99.90;;;;;;5072041;28;19915;-72
2022/02/15 08:13:33;;;;;;;;;;;23.80;99.90;;;;;;5072037;28;20003;-72
2022/02/15 08:16:00;;;;;;;;;;;23.80;99.90;;;;;;5071687;28;20011;-72
2022/02/15 08:18:27;;;;;;;;;;;23.80;99.90;;;;;;5072144;28;19908;-72
2022/02/15 08:20:53;;;;;;;;;;;23.80;99.90;;;;;;5071914;28;19909;-72
2022/02/15 08:23:20;;;;;;;;;;;23.70;99.90;;;;;;5071241;28;19909;-72
2022/02/15 08:25:47;;;;;;;;;;;23.70;99.90;;;;;;5071550;28;19951;-73
2022/02/15 08:28:15;;;;;;;;;;;23.70;99.90;;;;;;5072119;28;19920;-72
2022/02/15 08:30:41;;;;;;;;;;;23.70;99.90;;;;;;5071968;28;19909;-72
2022/02/15 08:33:08;;;;;;;;;;;23.70;99.90;;;;;;5071750;28;19962;-72
2022/02/15 08:35:35;;;;;;;;;;;23.70;99.90;;;;;;5071932;28;20386;-72
2022/02/15 08:38:01;;;;;;;;;;;23.70;99.90;;;;;;5071138;28;19909;-72
2022/02/15 08:40:28;;;;;;;;;;;23.70;99.90;;;;;;5071724;28;20381;-72
2022/02/15 08:42:55;;;;;;;;;;;23.60;99.90;;;;;;5071759;28;20324;-72
2022/02/15 08:45:22;;;;;;;;;;;23.60;99.90;;;;;;5071842;28;20003;-72
2022/02/15 08:47:49;;;;;;;;;;;23.50;99.90;;;;;;5071847;28;19939;-72
2022/02/15 08:50:17;;;;;;;;;;;23.60;99.90;;;;;;5071859;28;20019;-72
2022/02/15 08:52:44;;;;;;;;;;;23.50;99.90;;;;;;5073663;28;20255;-72
2022/02/15 08:55:11;;;;;;;;;;;23.50;99.90;;;;;;5075236;28;19958;-72
2022/02/15 08:57:37;;;;;;;;;;;23.60;99.90;;;;;;5075428;28;19915;-72
2022/02/15 09:00:05;;;;;;;;;;;23.50;99.90;;;;;;5074879;28;19952;-72
2022/02/15 09:02:32;;;;;;;;;;;23.50;99.90;;;;;;5075124;28;19918;-72
2022/02/15 09:04:59;;;;;;;;;;;23.40;99.90;;;;;;5074891;28;19912;-72
2022/02/15 09:07:25;;;;;;;;;;;23.40;99.90;;;;;;5074349;28;19916;-72
2022/02/15 09:09:52;;;;;;;;;;;23.40;99.90;;;;;;5074846;28;19915;-72
2022/02/15 09:12:19;;;;;;;;;;;23.40;99.90;;;;;;5075025;28;19948;-72
2022/02/15 09:14:45;;;;;;;;;;;23.40;99.90;;;;;;5074967;28;19919;-72
2022/02/15 09:17:12;;;;;;;;;;;23.30;99.90;;;;;;5074856;28;19916;-72
2022/02/15 09:19:39;;;;;;;;;;;23.30;99.90;;;;;;5074891;28;19909;-72
2022/02/15 09:22:05;;;;;;;;;;;23.30;99.90;;;;;;5073761;28;20312;-72
2022/02/15 09:24:32;;;;;;;;;;;23.30;99.90;;;;;;5074706;28;19920;-72
2022/02/15 09:26:59;;;;;;;;;;;23.20;99.90;;;;;;5074751;28;20271;-72
2022/02/15 09:29:25;;;;;;;;;;;23.20;99.90;;;;;;5074791;28;20004;-72
2022/02/15 09:31:52;;;;;;;;;;;23.20;99.90;;;;;;5074375;28;19939;-72
2022/02/15 09:34:23;;;;;;;;;;;23.20;99.90;;;;;;5074477;28;19992;-72
2022/02/15 09:36:52;;;;;;;;;;;23.20;99.90;;;;;;5073639;28;19991;-72
2022/02/15 09:39:19;;;;;;;;;;;23.10;99.90;;;;;;5074589;28;20359;-72
2022/02/15 09:41:46;;;;;;;;;;;23.10;99.90;;;;;;5074270;28;19909;-72
2022/02/15 09:44:14;;;;;;;;;;;23.20;99.90;;;;;;5074272;28;19913;-72
2022/02/15 09:46:42;;;;;;;;;;;23.10;99.90;;;;;;5074349;28;19908;-72
2022/02/15 09:49:48;;;;;;;;;;;23.10;99.90;;;;;;5074119;28;19952;-72
2022/02/15 09:51:55;;;;;;;;;;;23.10;99.90;;;;;;5073371;28;19962;-72
2022/02/15 09:54:21;;;;;;;;;;;23.10;99.90;;;;;;5074024;28;20102;-72
2022/02/15 09:56:48;;;;;;;;;;;23.10;99.90;;;;;;5074277;28;19909;-72
2022/02/15 09:59:16;;;;;;;;;;;23.00;99.90;;;;;;5074105;28;19963;-72
2022/02/15 10:01:42;;;;;;;;;;;23.00;99.90;;;;;;5074076;28;20006;-72
2022/02/15 10:04:09;;;;;;;;;;;23.00;99.90;;;;;;5073087;28;19908;-72
2022/02/15 10:06:40;;;;;;;;;;;23.00;99.90;;;;;;5073316;28;19915;-72
2022/02/15 10:09:10;;;;;;;;;;;23.00;99.90;;;;;;5073849;28;19953;-72
2022/02/15 10:11:37;;;;;;;;;;;22.90;99.90;;;;;;5073895;28;19915;-72
2022/02/15 10:14:04;;;;;;;;;;;22.90;99.90;;;;;;5073660;28;19924;-73
2022/02/15 10:16:31;;;;;;;;;;;22.90;99.90;;;;;;5073845;28;20398;-72
2022/02/15 10:18:59;;;;;;;;;;;22.90;99.90;;;;;;5073665;28;20297;-72
2022/02/15 10:21:29;;;;;;;;;;;22.90;99.90;;;;;;5072830;28;20385;-72
2022/02/15 10:23:56;;;;;;;;;;;22.90;99.90;;;;;;5073504;28;19909;-72
2022/02/15 10:26:25;;;;;;;;;;;22.80;99.90;;;;;;5073582;28;19959;-72
2022/02/15 10:28:52;;;;;;;;;;;22.80;99.90;;;;;;5073507;28;19908;-72
2022/02/15 10:31:19;;;;;;;;;;;22.90;99.90;;;;;;5073598;28;19969;-72
2022/02/15 10:33:48;;;;;;;;;;;22.80;99.90;;;;;;5073291;28;20271;-72
2022/02/15 10:36:14;;;;;;;;;;;22.90;99.90;;;;;;5105334;28;19909;-72
2022/02/15 10:38:42;;;;;;;;;;;22.80;99.90;;;;;;5073360;28;20007;-72
2022/02/15 10:41:10;;;;;;;;;;;22.80;99.90;;;;;;5073432;28;19909;-72
2022/02/15 10:43:47;;;;;;;;;;;22.80;99.90;;;;;;5073463;28;19940;-72
2022/02/15 10:46:18;;;;;;;;;;;22.80;99.90;;;;;;5073153;28;19916;-72
2022/02/15 10:48:45;;;;;;;;;;;22.70;99.90;;;;;;5073197;28;19908;-72
2022/02/15 10:51:13;;;;;;;;;;;22.70;99.90;;;;;;5072523;28;20337;-72
2022/02/15 10:53:39;;;;;;;;;;;22.70;99.90;;;;;;5073073;28;19916;-72
2022/02/15 10:56:06;;;;;;;;;;;22.70;99.90;;;;;;5072846;28;19916;-72
2022/02/15 10:58:33;;;;;;;;;;;22.70;99.90;;;;;;5073050;28;20355;-72
2022/02/15 11:01:01;;;;;;;;;;;22.60;99.90;;;;;;5072788;28;19921;-72
2022/02/15 11:03:32;;;;;;;;;;;22.60;99.90;;;;;;5072875;28;20363;-72
2022/02/15 11:05:59;;;;;;;;;;;22.60;99.90;;;;;;5072036;28;20279;-72
2022/02/15 11:08:27;;;;;;;;;;;22.60;99.90;;;;;;5072668;28;19936;-72
2022/02/15 11:11:13;;;;;;;;;;;22.60;99.90;;;;;;5072791;28;19908;-72
2022/02/15 11:13:40;;;;;;;;;;;22.70;99.90;;;;;;5072695;28;20282;-72
2022/02/15 11:16:10;;;;;;;;;;;22.60;99.90;;;;;;5071075;28;19966;-72
2022/02/15 11:18:38;;;;;;;;;;;22.70;99.90;;;;;;5072603;28;19912;-72
2022/02/15 11:21:06;;;;;;;;;;;22.70;99.90;;;;;;5071871;28;20003;-72
2022/02/15 11:23:37;;;;;;;;;;;22.60;99.90;;;;;;5082385;28;19912;-72
2022/02/15 11:26:14;;;;;;;;;;;22.60;99.90;;;;;;5072449;28;20216;-72
2022/02/15 11:28:51;;;;;;;;;;;22.50;99.90;;;;;;5072690;28;19960;-72
2022/02/15 11:31:26;;;;;;;;;;;22.60;99.90;;;;;;5072762;28;19909;-72
2022/02/15 11:33:54;;;;;;;;;;;22.50;99.90;;;;;;5072281;28;19938;-72
2022/02/15 11:36:23;;;;;;;;;;;22.50;99.90;;;;;;5072400;28;20374;-72
2022/02/15 11:38:53;;;;;;;;;;;22.50;99.90;;;;;;5072724;28;20280;-72
2022/02/15 11:41:19;;;;;;;;;;;22.50;99.90;;;;;;5072621;28;19954;-72
2022/02/15 11:43:55;;;;;;;;;;;22.50;99.90;;;;;;5072515;28;19915;-72
2022/02/15 11:46:29;;;;;;;;;;;22.50;99.90;;;;;;5072398;28;19919;-72
2022/02/15 11:48:56;;;;;;;;;;;22.40;99.90;;;;;;5072290;28;19947;-72
2022/02/15 11:51:23;;;;;;;;;;;22.40;99.90;;;;;;5072215;28;20312;-72
2022/02/15 11:53:57;;;;;;;;;;;22.50;99.90;;;;;;5072275;28;19920;-72
2022/02/15 11:56:24;;;;;;;;;;;22.40;99.90;;;;;;5072197;28;19908;-72
2022/02/15 11:58:52;;;;;;;;;;;22.40;99.90;;;;;;5072111;28;19909;-72
2022/02/15 12:01:28;;;;;;;;;;;22.40;99.90;;;;;;5072503;28;19938;-72
2022/02/15 12:03:56;;;;;;;;;;;22.40;99.90;;;;;;5072092;28;20270;-73
2022/02/15 12:06:23;;;;;;;;;;;22.40;99.90;;;;;;5072150;28;19912;-72
2022/02/15 12:08:54;;;;;;;;;;;22.40;99.90;;;;;;5072551;28;19908;-72
2022/02/15 12:11:30;;;;;;;;;;;22.40;99.90;;;;;;5072676;28;19908;-72
2022/02/15 12:13:56;;;;;;;;;;;22.40;99.90;;;;;;5071876;28;20275;-72
2022/02/15 12:16:23;;;;;;;;;;;22.40;99.90;;;;;;5072350;28;19999;-72
2022/02/15 12:18:50;;;;;;;;;;;22.40;99.90;;;;;;5072202;28;19908;-72
2022/02/15 12:21:17;;;;;;;;;;;22.40;99.90;;;;;;5072075;28;19974;-72
2022/02/15 12:23:46;;;;;;;;;;;22.40;99.90;;;;;;5072209;28;19932;-72
2022/02/15 12:26:13;;;;;;;;;;;22.30;99.90;;;;;;5072702;28;20018;-72
2022/02/15 12:28:39;;;;;;;;;;;22.30;99.90;;;;;;5075948;28;19908;-72
2022/02/15 12:31:09;;;;;;;;;;;22.30;99.90;;;;;;5075748;28;19909;-72
2022/02/15 12:33:36;;;;;;;;;;;22.30;99.90;;;;;;5075744;28;19960;-72
2022/02/15 12:36:06;;;;;;;;;;;22.30;99.90;;;;;;5075435;28;19915;-72
2022/02/15 12:38:37;;;;;;;;;;;22.30;99.90;;;;;;5075755;28;19912;-72
2022/02/15 12:41:12;;;;;;;;;;;22.30;99.90;;;;;;5075518;28;19908;-72
2022/02/15 12:43:39;;;;;;;;;;;22.30;99.90;;;;;;5075697;28;19955;-72
2022/02/15 12:46:05;;;;;;;;;;;22.30;99.90;;;;;;5075416;28;20331;-72
2022/02/15 12:48:32;;;;;;;;;;;22.20;99.90;;;;;;5075504;28;19938;-72
2022/02/15 12:51:00;;;;;;;;;;;22.20;99.90;;;;;;5075660;28;19908;-72
2022/02/15 12:53:26;;;;;;;;;;;22.20;99.90;;;;;;5075531;28;20313;-72
2022/02/15 12:55:53;;;;;;;;;;;22.20;99.90;;;;;;5075117;28;19912;-72
2022/02/15 12:58:20;;;;;;;;;;;22.20;99.90;;;;;;5075358;28;19909;-72
2022/02/15 13:00:47;;;;;;;;;;;22.20;99.90;;;;;;5075171;28;19927;-72
2022/02/15 13:03:20;;;;;;;;;;;22.20;99.90;;;;;;5075228;28;19908;-72
2022/02/15 13:05:47;;;;;;;;;;;22.20;99.90;;;;;;5074927;28;20522;-71
2022/02/15 13:08:17;;;;;;;;;;;22.20;99.90;;;;;;5075071;28;19916;-71
2022/02/15 13:10:54;;;;;;;;;;;22.20;99.90;;;;;;5075060;28;19908;-72
2022/02/15 13:13:23;;;;;;;;;;;22.20;99.90;;;;;;5074991;28;19994;-72
2022/02/15 13:15:57;;;;;;;;;;;22.20;99.90;;;;;;5074857;28;19909;-72
2022/02/15 13:18:25;;;;;;;;;;;22.10;99.90;;;;;;5075012;28;19915;-72
2022/02/15 13:20:52;;;;;;;;;;;22.10;99.90;;;;;;5074802;28;19961;-72
2022/02/15 13:23:19;;;;;;;;;;;22.20;99.90;;;;;;5074946;28;19916;-72
2022/02/15 13:25:50;;;;;;;;;;;22.20;99.90;;;;;;5074931;28;19909;-72
2022/02/15 13:28:18;;;;;;;;;;;22.20;99.90;;;;;;5074920;28;19915;-71
2022/02/15 13:30:45;;;;;;;;;;;22.10;99.90;;;;;;5074688;28;19944;-72
2022/02/15 13:33:12;;;;;;;;;;;22.10;99.90;;;;;;5074644;28;20283;-72
2022/02/15 13:35:43;;;;;;;;;;;22.10;99.90;;;;;;5074733;28;19908;-72
2022/02/15 13:38:11;;;;;;;;;;;22.00;99.90;;;;;;5073439;28;19984;-72
2022/02/15 13:40:38;;;;;;;;;;;22.10;99.90;;;;;;5074656;28;19967;-72
2022/02/15 13:43:05;;;;;;;;;;;22.10;99.90;;;;;;5074589;28;19941;-72
2022/02/15 13:45:32;;;;;;;;;;;22.10;99.90;;;;;;5074510;28;20011;-72
2022/02/15 13:47:59;;;;;;;;;;;22.10;99.90;;;;;;5074296;28;19912;-72
2022/02/15 13:50:26;;;;;;;;;;;22.10;99.90;;;;;;5074174;28;20278;-72
2022/02/15 13:52:54;;;;;;;;;;;22.10;99.90;;;;;;5074173;28;19921;-71
2022/02/15 13:55:22;;;;;;;;;;;22.10;99.90;;;;;;5074387;28;19909;-72
2022/02/15 13:57:48;;;;;;;;;;;22.10;99.90;;;;;;5073949;28;20375;-72
2022/02/15 14:00:15;;;;;;;;;;;22.10;99.90;;;;;;5074233;28;19921;-71
2022/02/15 14:02:43;;;;;;;;;;;22.10;99.90;;;;;;5074299;28;19935;-72
2022/02/15 14:05:13;;;;;;;;;;;22.20;99.90;;;;;;5073946;28;20325;-71
2022/02/15 14:07:40;;;;;;;;;;;22.20;99.90;;;;;;5074062;28;20003;-72
2022/02/15 14:10:08;;;;;;;;;;;22.20;99.90;;;;;;5073736;28;19912;-71
2022/02/15 14:12:37;;;;;;;;;;;22.20;99.90;;;;;;5073990;28;20359;-72
2022/02/15 14:15:08;;;;;;;;;;;22.20;99.90;;;;;;5073924;28;19919;-72
2022/02/15 14:17:48;;;;;;;;;;;22.20;99.90;;;;;;5073847;28;19944;-72
2022/02/15 14:20:16;;;;;;;;;;;22.20;99.90;;;;;;5073903;28;20250;-72
2022/02/15 14:22:44;;;;;;;;;;;22.20;99.90;;;;;;5073816;28;19920;-72
2022/02/15 14:25:11;;;;;;;;;;;22.20;99.90;;;;;;5073744;28;19912;-72
2022/02/15 14:27:39;;;;;;;;;;;22.20;99.90;;;;;;5073738;28;19916;-72
2022/02/15 14:30:09;;;;;;;;;;;22.20;99.90;;;;;;5073458;28;20450;-72